sensor_id;sensor_type;location;lat;lon;timestamp;temperature;humidity
18648;DHT22;9453;50.294;18.644;2023-05-31T04:02:10;11.80;90.40
18648;DHT22;9453;50.294;18.644;2023-05-31T04:04:37;11.80;89.20
18648;DHT22;9453;50.294;18.644;2023-05-31T04:07:04;11.80;88.60
18648;DHT22;9453;50.294;18.644;2023-05-31T04:09:32;11.90;88.20
18648;DHT22;9453;50.294;18.644;2023-05-31T04:15:20;12.00;88.70
18648;DHT22;9453;50.294;18.644;2023-05-31T04:17:49;12.20;88.30
18648;DHT22;9453;50.294;18.644;2023-05-31T04:20:15;12.20;87.60
18648;DHT22;9453;50.294;18.644;2023-05-31T04:22:44;12.20;86.90
18648;DHT22;9453;50.294;18.644;2023-05-31T04:25:11;12.30;86.90
18648;DHT22;9453;50.294;18.644;2023-05-31T04:27:39;12.40;86.40
18648;DHT22;9453;50.294;18.644;2023-05-31T04:30:07;12.40;85.70
18648;DHT22;9453;50.294;18.644;2023-05-31T04:32:34;12.50;85.80
18648;DHT22;9453;50.294;18.644;2023-05-31T04:35:04;12.60;85.80
18648;DHT22;9453;50.294;18.644;2023-05-31T04:37:33;12.70;85.40
18648;DHT22;9453;50.294;18.644;2023-05-31T04:40:01;12.70;85.40
18648;DHT22;9453;50.294;18.644;2023-05-31T04:42:30;12.80;85.40
18648;DHT22;9453;50.294;18.644;2023-05-31T04:44:58;12.90;85.00
18648;DHT22;9453;50.294;18.644;2023-05-31T04:47:27;12.90;84.50
18648;DHT22;9453;50.294;18.644;2023-05-31T04:49:54;13.00;84.60
18648;DHT22;9453;50.294;18.644;2023-05-31T04:52:24;13.10;84.10
18648;DHT22;9453;50.294;18.644;2023-05-31T04:54:52;13.20;83.70
18648;DHT22;9453;50.294;18.644;2023-05-31T04:57:19;13.30;83.70
18648;DHT22;9453;50.294;18.644;2023-05-31T04:59:46;13.40;82.60
18648;DHT22;9453;50.294;18.644;2023-05-31T05:02:13;13.50;82.60
18648;DHT22;9453;50.294;18.644;2023-05-31T05:04:40;13.60;82.70
18648;DHT22;9453;50.294;18.644;2023-05-31T05:07:07;13.70;82.00
18648;DHT22;9453;50.294;18.644;2023-05-31T05:09:36;13.80;81.20
18648;DHT22;9453;50.294;18.644;2023-05-31T05:12:03;13.90;80.90
18648;DHT22;9453;50.294;18.644;2023-05-31T05:14:31;14.00;80.70
18648;DHT22;9453;50.294;18.644;2023-05-31T05:16:58;14.10;80.70
18648;DHT22;9453;50.294;18.644;2023-05-31T05:19:25;14.20;79.00
18648;DHT22;9453;50.294;18.644;2023-05-31T05:21:52;14.30;78.50
18648;DHT22;9453;50.294;18.644;2023-05-31T05:24:19;14.40;78.60
18648;DHT22;9453;50.294;18.644;2023-05-31T05:26:48;14.50;78.50
18648;DHT22;9453;50.294;18.644;2023-05-31T05:29:15;14.60;77.90
18648;DHT22;9453;50.294;18.644;2023-05-31T05:31:41;14.70;77.60
18648;DHT22;9453;50.294;18.644;2023-05-31T05:34:08;14.70;77.00
18648;DHT22;9453;50.294;18.644;2023-05-31T05:36:36;14.80;77.20
18648;DHT22;9453;50.294;18.644;2023-05-31T05:39:04;14.90;76.30
18648;DHT22;9453;50.294;18.644;2023-05-31T05:41:31;15.00;76.30
18648;DHT22;9453;50.294;18.644;2023-05-31T05:44:00;15.10;75.90
18648;DHT22;9453;50.294;18.644;2023-05-31T05:46:28;15.20;75.80
18648;DHT22;9453;50.294;18.644;2023-05-31T05:48:55;15.30;76.20
18648;DHT22;9453;50.294;18.644;2023-05-31T05:51:22;15.40;75.90
18648;DHT22;9453;50.294;18.644;2023-05-31T05:53:49;15.50;75.90
18648;DHT22;9453;50.294;18.644;2023-05-31T05:56:16;15.50;75.10
18648;DHT22;9453;50.294;18.644;2023-05-31T05:58:44;15.70;75.00
18648;DHT22;9453;50.294;18.644;2023-05-31T06:01:13;15.80;74.80
18648;DHT22;9453;50.294;18.644;2023-05-31T06:03:45;15.90;74.40
18648;DHT22;9453;50.294;18.644;2023-05-31T06:06:13;16.00;74.10
18648;DHT22;9453;50.294;18.644;2023-05-31T06:08:40;16.10;73.70
18648;DHT22;9453;50.294;18.644;2023-05-31T06:11:07;16.20;72.50
18648;DHT22;9453;50.294;18.644;2023-05-31T06:13:34;16.30;71.80
18648;DHT22;9453;50.294;18.644;2023-05-31T06:16:02;16.40;71.90
18648;DHT22;9453;50.294;18.644;2023-05-31T06:18:31;16.50;70.90
18648;DHT22;9453;50.294;18.644;2023-05-31T06:20:58;16.60;70.20
18648;DHT22;9453;50.294;18.644;2023-05-31T06:23:25;16.70;70.30
18648;DHT22;9453;50.294;18.644;2023-05-31T06:25:52;16.80;70.30
18648;DHT22;9453;50.294;18.644;2023-05-31T06:28:19;16.80;70.00
18648;DHT22;9453;50.294;18.644;2023-05-31T06:30:46;16.90;68.90
18648;DHT22;9453;50.294;18.644;2023-05-31T06:33:13;17.00;68.60
18648;DHT22;9453;50.294;18.644;2023-05-31T06:35:41;17.10;68.80
18648;DHT22;9453;50.294;18.644;2023-05-31T06:38:10;17.20;68.40
18648;DHT22;9453;50.294;18.644;2023-05-31T06:40:41;17.20;67.60
18648;DHT22;9453;50.294;18.644;2023-05-31T06:43:09;17.20;65.80
18648;DHT22;9453;50.294;18.644;2023-05-31T06:45:36;17.30;66.10
18648;DHT22;9453;50.294;18.644;2023-05-31T06:48:07;17.40;66.60
18648;DHT22;9453;50.294;18.644;2023-05-31T06:50:35;17.50;66.60
18648;DHT22;9453;50.294;18.644;2023-05-31T06:53:04;17.60;66.80
18648;DHT22;9453;50.294;18.644;2023-05-31T06:55:31;17.70;66.30
18648;DHT22;9453;50.294;18.644;2023-05-31T06:57:58;17.70;64.90
18648;DHT22;9453;50.294;18.644;2023-05-31T07:00:25;17.80;64.70
18648;DHT22;9453;50.294;18.644;2023-05-31T07:02:52;17.80;64.20
18648;DHT22;9453;50.294;18.644;2023-05-31T07:05:19;17.90;64.50
18648;DHT22;9453;50.294;18.644;2023-05-31T07:07:46;17.90;63.60
18648;DHT22;9453;50.294;18.644;2023-05-31T07:10:15;18.00;63.80
18648;DHT22;9453;50.294;18.644;2023-05-31T07:12:42;18.10;64.10
18648;DHT22;9453;50.294;18.644;2023-05-31T07:15:10;18.20;64.50
18648;DHT22;9453;50.294;18.644;2023-05-31T07:17:37;18.30;64.10
18648;DHT22;9453;50.294;18.644;2023-05-31T07:20:05;18.30;63.80
18648;DHT22;9453;50.294;18.644;2023-05-31T07:22:33;18.30;63.00
18648;DHT22;9453;50.294;18.644;2023-05-31T07:25:00;18.40;61.90
18648;DHT22;9453;50.294;18.644;2023-05-31T07:27:30;18.50;63.20
18648;DHT22;9453;50.294;18.644;2023-05-31T07:29:58;18.50;62.00
18648;DHT22;9453;50.294;18.644;2023-05-31T07:32:25;18.60;61.90
18648;DHT22;9453;50.294;18.644;2023-05-31T07:34:52;18.60;61.90
18648;DHT22;9453;50.294;18.644;2023-05-31T07:37:19;18.70;62.80
18648;DHT22;9453;50.294;18.644;2023-05-31T07:39:46;18.80;61.60
18648;DHT22;9453;50.294;18.644;2023-05-31T07:42:13;18.90;60.30
18648;DHT22;9453;50.294;18.644;2023-05-31T07:44:41;19.00;60.00
18648;DHT22;9453;50.294;18.644;2023-05-31T07:47:08;19.00;58.70
18648;DHT22;9453;50.294;18.644;2023-05-31T07:49:35;19.30;58.20
18648;DHT22;9453;50.294;18.644;2023-05-31T07:52:03;19.10;56.50
18648;DHT22;9453;50.294;18.644;2023-05-31T07:54:30;19.20;56.40
18648;DHT22;9453;50.294;18.644;2023-05-31T07:56:57;19.30;57.60
18648;DHT22;9453;50.294;18.644;2023-05-31T07:59:24;19.30;57.10
18648;DHT22;9453;50.294;18.644;2023-05-31T08:01:52;19.40;56.50
18648;DHT22;9453;50.294;18.644;2023-05-31T08:04:20;19.50;56.60
18648;DHT22;9453;50.294;18.644;2023-05-31T08:06:47;19.50;57.20
18648;DHT22;9453;50.294;18.644;2023-05-31T08:09:14;19.70;57.50
18648;DHT22;9453;50.294;18.644;2023-05-31T08:11:41;19.90;58.40
18648;DHT22;9453;50.294;18.644;2023-05-31T08:14:08;19.80;57.70
18648;DHT22;9453;50.294;18.644;2023-05-31T08:16:37;19.80;57.40
18648;DHT22;9453;50.294;18.644;2023-05-31T08:19:06;19.90;57.70
18648;DHT22;9453;50.294;18.644;2023-05-31T08:21:34;19.90;57.90
18648;DHT22;9453;50.294;18.644;2023-05-31T08:24:02;19.90;56.80
18648;DHT22;9453;50.294;18.644;2023-05-31T08:26:31;19.90;56.60
18648;DHT22;9453;50.294;18.644;2023-05-31T08:28:58;19.90;56.50
18648;DHT22;9453;50.294;18.644;2023-05-31T08:31:25;19.80;55.30
18648;DHT22;9453;50.294;18.644;2023-05-31T08:33:55;19.80;54.50
18648;DHT22;9453;50.294;18.644;2023-05-31T08:36:24;19.80;56.10
18648;DHT22;9453;50.294;18.644;2023-05-31T08:38:52;19.80;55.10
18648;DHT22;9453;50.294;18.644;2023-05-31T08:41:21;19.80;54.40
18648;DHT22;9453;50.294;18.644;2023-05-31T08:43:49;19.80;54.10
18648;DHT22;9453;50.294;18.644;2023-05-31T08:46:16;19.80;53.70
18648;DHT22;9453;50.294;18.644;2023-05-31T08:48:47;19.70;53.20
18648;DHT22;9453;50.294;18.644;2023-05-31T08:51:17;19.80;54.00
18648;DHT22;9453;50.294;18.644;2023-05-31T08:53:46;19.90;54.60
18648;DHT22;9453;50.294;18.644;2023-05-31T08:56:14;19.90;53.90
18648;DHT22;9453;50.294;18.644;2023-05-31T08:58:43;20.00;54.80
18648;DHT22;9453;50.294;18.644;2023-05-31T09:01:10;20.00;54.20
18648;DHT22;9453;50.294;18.644;2023-05-31T09:03:38;20.10;54.30
18648;DHT22;9453;50.294;18.644;2023-05-31T09:06:05;20.20;54.60
18648;DHT22;9453;50.294;18.644;2023-05-31T09:08:32;20.30;54.90
18648;DHT22;9453;50.294;18.644;2023-05-31T09:11:02;20.30;54.20
18648;DHT22;9453;50.294;18.644;2023-05-31T09:13:29;20.40;55.00
18648;DHT22;9453;50.294;18.644;2023-05-31T09:15:57;20.40;54.60
18648;DHT22;9453;50.294;18.644;2023-05-31T09:18:24;20.40;53.90
18648;DHT22;9453;50.294;18.644;2023-05-31T09:20:55;20.50;54.30
18648;DHT22;9453;50.294;18.644;2023-05-31T09:23:24;20.50;54.70
18648;DHT22;9453;50.294;18.644;2023-05-31T09:25:51;20.60;54.10
18648;DHT22;9453;50.294;18.644;2023-05-31T09:28:21;20.70;54.90
18648;DHT22;9453;50.294;18.644;2023-05-31T09:31:01;20.80;55.00
18648;DHT22;9453;50.294;18.644;2023-05-31T09:33:37;20.80;54.50
18648;DHT22;9453;50.294;18.644;2023-05-31T09:36:06;20.90;53.50
18648;DHT22;9453;50.294;18.644;2023-05-31T09:38:34;20.80;54.00
18648;DHT22;9453;50.294;18.644;2023-05-31T09:41:12;20.90;54.10
18648;DHT22;9453;50.294;18.644;2023-05-31T09:43:43;21.00;54.30
18648;DHT22;9453;50.294;18.644;2023-05-31T09:46:11;21.00;52.90
18648;DHT22;9453;50.294;18.644;2023-05-31T09:48:39;21.00;53.40
18648;DHT22;9453;50.294;18.644;2023-05-31T09:51:07;21.10;53.30
18648;DHT22;9453;50.294;18.644;2023-05-31T09:53:39;21.10;53.10
18648;DHT22;9453;50.294;18.644;2023-05-31T09:56:09;21.00;52.90
18648;DHT22;9453;50.294;18.644;2023-05-31T09:58:37;21.20;53.20
18648;DHT22;9453;50.294;18.644;2023-05-31T10:01:05;21.20;52.20
18648;DHT22;9453;50.294;18.644;2023-05-31T10:03:32;21.30;52.80
18648;DHT22;9453;50.294;18.644;2023-05-31T10:06:00;21.40;53.50
18648;DHT22;9453;50.294;18.644;2023-05-31T10:08:28;21.50;54.00
18648;DHT22;9453;50.294;18.644;2023-05-31T10:10:58;21.50;53.00
18648;DHT22;9453;50.294;18.644;2023-05-31T10:13:28;21.60;53.00
18648;DHT22;9453;50.294;18.644;2023-05-31T10:15:57;21.60;52.70
18648;DHT22;9453;50.294;18.644;2023-05-31T10:18:28;21.70;53.30
18648;DHT22;9453;50.294;18.644;2023-05-31T10:21:02;21.70;52.30
18648;DHT22;9453;50.294;18.644;2023-05-31T10:23:30;21.60;51.40
18648;DHT22;9453;50.294;18.644;2023-05-31T10:26:07;21.50;50.90
18648;DHT22;9453;50.294;18.644;2023-05-31T10:28:44;21.60;51.90
18648;DHT22;9453;50.294;18.644;2023-05-31T10:31:11;21.70;51.60
18648;DHT22;9453;50.294;18.644;2023-05-31T10:33:47;21.70;51.80
18648;DHT22;9453;50.294;18.644;2023-05-31T10:36:16;21.70;51.20
18648;DHT22;9453;50.294;18.644;2023-05-31T10:38:50;21.80;52.30
18648;DHT22;9453;50.294;18.644;2023-05-31T10:41:21;22.00;52.50
18648;DHT22;9453;50.294;18.644;2023-05-31T10:43:54;22.00;51.70
18648;DHT22;9453;50.294;18.644;2023-05-31T10:46:25;22.10;51.30
18648;DHT22;9453;50.294;18.644;2023-05-31T10:48:56;22.10;50.70
18648;DHT22;9453;50.294;18.644;2023-05-31T10:51:38;22.10;51.30
18648;DHT22;9453;50.294;18.644;2023-05-31T10:54:05;22.20;51.80
18648;DHT22;9453;50.294;18.644;2023-05-31T10:56:32;22.30;51.40
18648;DHT22;9453;50.294;18.644;2023-05-31T10:58:59;22.40;51.00
18648;DHT22;9453;50.294;18.644;2023-05-31T11:01:29;22.60;51.30
18648;DHT22;9453;50.294;18.644;2023-05-31T11:03:58;22.50;49.80
18648;DHT22;9453;50.294;18.644;2023-05-31T11:06:28;22.60;50.70
18648;DHT22;9453;50.294;18.644;2023-05-31T11:08:59;22.70;50.70
18648;DHT22;9453;50.294;18.644;2023-05-31T11:11:44;22.70;51.00
18648;DHT22;9453;50.294;18.644;2023-05-31T11:14:27;22.60;49.70
18648;DHT22;9453;50.294;18.644;2023-05-31T11:17:14;22.60;49.00
18648;DHT22;9453;50.294;18.644;2023-05-31T11:19:43;22.50;49.20
18648;DHT22;9453;50.294;18.644;2023-05-31T11:22:14;22.50;50.60
18648;DHT22;9453;50.294;18.644;2023-05-31T11:24:48;22.50;50.20
18648;DHT22;9453;50.294;18.644;2023-05-31T11:27:18;22.40;48.90
18648;DHT22;9453;50.294;18.644;2023-05-31T11:29:58;22.40;50.30
18648;DHT22;9453;50.294;18.644;2023-05-31T11:32:53;22.50;51.40
18648;DHT22;9453;50.294;18.644;2023-05-31T11:35:23;22.50;50.00
18648;DHT22;9453;50.294;18.644;2023-05-31T11:38:08;22.50;50.10
18648;DHT22;9453;50.294;18.644;2023-05-31T11:40:35;22.30;50.00
18648;DHT22;9453;50.294;18.644;2023-05-31T11:43:08;22.20;49.70
18648;DHT22;9453;50.294;18.644;2023-05-31T11:45:40;22.20;49.30
18648;DHT22;9453;50.294;18.644;2023-05-31T11:48:36;22.20;49.70
18648;DHT22;9453;50.294;18.644;2023-05-31T11:51:14;22.30;49.40
18648;DHT22;9453;50.294;18.644;2023-05-31T11:53:42;22.30;50.20
18648;DHT22;9453;50.294;18.644;2023-05-31T11:56:10;22.40;50.80
18648;DHT22;9453;50.294;18.644;2023-05-31T11:58:45;22.50;50.90
18648;DHT22;9453;50.294;18.644;2023-05-31T12:01:12;22.50;49.20
18648;DHT22;9453;50.294;18.644;2023-05-31T12:03:39;22.60;49.10
18648;DHT22;9453;50.294;18.644;2023-05-31T12:06:08;22.50;47.70
18648;DHT22;9453;50.294;18.644;2023-05-31T12:08:35;22.50;47.90
18648;DHT22;9453;50.294;18.644;2023-05-31T12:11:03;22.40;47.80
18648;DHT22;9453;50.294;18.644;2023-05-31T12:13:31;22.40;48.50
18648;DHT22;9453;50.294;18.644;2023-05-31T12:15:58;22.30;47.80
18648;DHT22;9453;50.294;18.644;2023-05-31T12:18:25;22.30;47.70
18648;DHT22;9453;50.294;18.644;2023-05-31T12:20:52;22.30;48.80
18648;DHT22;9453;50.294;18.644;2023-05-31T12:23:21;22.40;48.90
18648;DHT22;9453;50.294;18.644;2023-05-31T12:25:50;22.40;48.00
18648;DHT22;9453;50.294;18.644;2023-05-31T12:28:17;22.50;48.40
18648;DHT22;9453;50.294;18.644;2023-05-31T12:30:45;22.60;49.00
18648;DHT22;9453;50.294;18.644;2023-05-31T12:33:12;22.70;48.90
18648;DHT22;9453;50.294;18.644;2023-05-31T12:35:40;22.70;47.40
18648;DHT22;9453;50.294;18.644;2023-05-31T12:38:07;22.90;48.00
18648;DHT22;9453;50.294;18.644;2023-05-31T12:40:38;23.10;47.50
18648;DHT22;9453;50.294;18.644;2023-05-31T12:43:06;23.30;47.00
18648;DHT22;9453;50.294;18.644;2023-05-31T12:45:39;23.60;43.60
18648;DHT22;9453;50.294;18.644;2023-05-31T12:48:08;23.80;44.40
18648;DHT22;9453;50.294;18.644;2023-05-31T12:50:36;24.10;45.10
18648;DHT22;9453;50.294;18.644;2023-05-31T12:53:06;24.40;44.00
18648;DHT22;9453;50.294;18.644;2023-05-31T12:55:34;24.40;43.50
18648;DHT22;9453;50.294;18.644;2023-05-31T12:58:03;24.50;43.50
18648;DHT22;9453;50.294;18.644;2023-05-31T13:00:32;24.60;44.20
18648;DHT22;9453;50.294;18.644;2023-05-31T13:02:59;24.70;45.00
18648;DHT22;9453;50.294;18.644;2023-05-31T13:05:26;24.90;44.70
18648;DHT22;9453;50.294;18.644;2023-05-31T13:07:53;25.00;43.70
18648;DHT22;9453;50.294;18.644;2023-05-31T13:10:20;25.20;42.60
18648;DHT22;9453;50.294;18.644;2023-05-31T13:12:47;25.30;43.00
18648;DHT22;9453;50.294;18.644;2023-05-31T13:15:15;25.40;40.90
18648;DHT22;9453;50.294;18.644;2023-05-31T13:17:42;25.50;39.80
18648;DHT22;9453;50.294;18.644;2023-05-31T13:20:10;25.50;40.80
18648;DHT22;9453;50.294;18.644;2023-05-31T13:22:37;25.60;40.20
18648;DHT22;9453;50.294;18.644;2023-05-31T13:25:05;25.70;39.50
18648;DHT22;9453;50.294;18.644;2023-05-31T13:27:32;25.80;38.30
18648;DHT22;9453;50.294;18.644;2023-05-31T13:29:59;25.80;39.10
18648;DHT22;9453;50.294;18.644;2023-05-31T13:32:28;26.00;38.20
18648;DHT22;9453;50.294;18.644;2023-05-31T13:34:55;26.00;37.10
18648;DHT22;9453;50.294;18.644;2023-05-31T13:37:22;26.20;38.50
18648;DHT22;9453;50.294;18.644;2023-05-31T13:39:48;26.30;37.90
18648;DHT22;9453;50.294;18.644;2023-05-31T13:42:17;26.40;38.00
18648;DHT22;9453;50.294;18.644;2023-05-31T13:44:44;26.40;37.10
18648;DHT22;9453;50.294;18.644;2023-05-31T13:47:11;26.60;38.20
18648;DHT22;9453;50.294;18.644;2023-05-31T13:49:39;26.70;38.10
18648;DHT22;9453;50.294;18.644;2023-05-31T13:52:06;26.90;38.40
18648;DHT22;9453;50.294;18.644;2023-05-31T13:54:35;27.20;38.00
18648;DHT22;9453;50.294;18.644;2023-05-31T13:57:02;27.50;37.40
18648;DHT22;9453;50.294;18.644;2023-05-31T13:59:29;27.70;38.00
18648;DHT22;9453;50.294;18.644;2023-05-31T14:01:57;27.40;35.70
18648;DHT22;9453;50.294;18.644;2023-05-31T14:04:24;27.20;35.80
18648;DHT22;9453;50.294;18.644;2023-05-31T14:06:52;27.30;36.40
18648;DHT22;9453;50.294;18.644;2023-05-31T14:09:19;27.40;36.40
18648;DHT22;9453;50.294;18.644;2023-05-31T14:11:47;27.30;36.40
18648;DHT22;9453;50.294;18.644;2023-05-31T14:14:14;27.40;36.40
18648;DHT22;9453;50.294;18.644;2023-05-31T14:16:41;27.70;36.60
18648;DHT22;9453;50.294;18.644;2023-05-31T14:19:08;27.80;35.70
18648;DHT22;9453;50.294;18.644;2023-05-31T14:21:35;28.00;35.50
18648;DHT22;9453;50.294;18.644;2023-05-31T14:24:04;28.00;35.00
18648;DHT22;9453;50.294;18.644;2023-05-31T14:26:31;28.00;34.20
18648;DHT22;9453;50.294;18.644;2023-05-31T14:28:59;28.10;35.30
18648;DHT22;9453;50.294;18.644;2023-05-31T14:31:26;28.30;35.60
18648;DHT22;9453;50.294;18.644;2023-05-31T14:33:53;28.30;35.10
18648;DHT22;9453;50.294;18.644;2023-05-31T14:36:20;28.20;36.40
18648;DHT22;9453;50.294;18.644;2023-05-31T14:38:47;28.20;35.80
18648;DHT22;9453;50.294;18.644;2023-05-31T14:41:16;27.90;36.20
18648;DHT22;9453;50.294;18.644;2023-05-31T14:43:43;27.80;36.70
18648;DHT22;9453;50.294;18.644;2023-05-31T14:46:12;28.00;36.80
18648;DHT22;9453;50.294;18.644;2023-05-31T14:48:39;28.00;36.30
18648;DHT22;9453;50.294;18.644;2023-05-31T14:51:06;27.90;35.90
18648;DHT22;9453;50.294;18.644;2023-05-31T14:53:33;28.00;36.50
18648;DHT22;9453;50.294;18.644;2023-05-31T14:56:00;28.00;35.80
18648;DHT22;9453;50.294;18.644;2023-05-31T14:58:29;28.20;36.30
18648;DHT22;9453;50.294;18.644;2023-05-31T15:00:56;28.50;36.80
18648;DHT22;9453;50.294;18.644;2023-05-31T15:03:23;28.90;34.70
18648;DHT22;9453;50.294;18.644;2023-05-31T15:05:50;29.40;35.30
18648;DHT22;9453;50.294;18.644;2023-05-31T15:08:17;29.30;34.40
18648;DHT22;9453;50.294;18.644;2023-05-31T15:10:44;29.20;33.90
18648;DHT22;9453;50.294;18.644;2023-05-31T15:13:11;29.00;34.30
18648;DHT22;9453;50.294;18.644;2023-05-31T15:15:39;28.80;35.30
18648;DHT22;9453;50.294;18.644;2023-05-31T15:18:06;28.90;34.90
18648;DHT22;9453;50.294;18.644;2023-05-31T15:20:33;29.00;35.20
18648;DHT22;9453;50.294;18.644;2023-05-31T15:23:00;28.90;35.00
18648;DHT22;9453;50.294;18.644;2023-05-31T15:25:27;28.90;34.80
18648;DHT22;9453;50.294;18.644;2023-05-31T15:27:54;28.90;34.80
18648;DHT22;9453;50.294;18.644;2023-05-31T15:30:21;28.80;34.40
18648;DHT22;9453;50.294;18.644;2023-05-31T15:32:49;28.60;35.10
18648;DHT22;9453;50.294;18.644;2023-05-31T15:35:16;28.40;34.70
18648;DHT22;9453;50.294;18.644;2023-05-31T15:37:43;28.30;34.30
18648;DHT22;9453;50.294;18.644;2023-05-31T15:40:11;28.40;34.80
18648;DHT22;9453;50.294;18.644;2023-05-31T15:42:38;28.30;34.30
18648;DHT22;9453;50.294;18.644;2023-05-31T15:45:07;28.40;35.20
18648;DHT22;9453;50.294;18.644;2023-05-31T15:47:34;28.30;34.70
18648;DHT22;9453;50.294;18.644;2023-05-31T15:50:03;28.30;34.30
18648;DHT22;9453;50.294;18.644;2023-05-31T15:52:30;27.90;34.90
18648;DHT22;9453;50.294;18.644;2023-05-31T15:54:57;27.80;35.80
18648;DHT22;9453;50.294;18.644;2023-05-31T15:57:24;27.50;35.80
18648;DHT22;9453;50.294;18.644;2023-05-31T15:59:52;26.80;35.50
18648;DHT22;9453;50.294;18.644;2023-05-31T16:02:19;26.60;37.20
18648;DHT22;9453;50.294;18.644;2023-05-31T16:04:46;26.10;37.70
18648;DHT22;9453;50.294;18.644;2023-05-31T16:07:15;25.70;38.80
18648;DHT22;9453;50.294;18.644;2023-05-31T16:09:42;25.60;39.10
18648;DHT22;9453;50.294;18.644;2023-05-31T16:12:09;25.20;38.90
18648;DHT22;9453;50.294;18.644;2023-05-31T16:14:37;25.00;39.80
18648;DHT22;9453;50.294;18.644;2023-05-31T16:17:04;24.80;39.70
18648;DHT22;9453;50.294;18.644;2023-05-31T16:19:31;24.70;40.10
18648;DHT22;9453;50.294;18.644;2023-05-31T16:21:58;24.70;41.40
18648;DHT22;9453;50.294;18.644;2023-05-31T16:24:26;24.80;42.00
18648;DHT22;9453;50.294;18.644;2023-05-31T16:26:53;24.80;41.90
18648;DHT22;9453;50.294;18.644;2023-05-31T16:29:20;24.60;42.80
18648;DHT22;9453;50.294;18.644;2023-05-31T16:31:47;24.30;41.40
18648;DHT22;9453;50.294;18.644;2023-05-31T16:34:14;24.20;42.40
18648;DHT22;9453;50.294;18.644;2023-05-31T16:36:41;24.20;42.90
18648;DHT22;9453;50.294;18.644;2023-05-31T16:39:08;24.00;42.40
18648;DHT22;9453;50.294;18.644;2023-05-31T16:41:36;23.80;41.80
18648;DHT22;9453;50.294;18.644;2023-05-31T16:44:03;23.70;42.80
18648;DHT22;9453;50.294;18.644;2023-05-31T16:46:30;23.70;43.30
18648;DHT22;9453;50.294;18.644;2023-05-31T16:48:57;23.70;43.40
18648;DHT22;9453;50.294;18.644;2023-05-31T16:51:24;23.70;43.60
18648;DHT22;9453;50.294;18.644;2023-05-31T16:53:52;23.50;44.20
18648;DHT22;9453;50.294;18.644;2023-05-31T16:56:19;23.40;44.60
18648;DHT22;9453;50.294;18.644;2023-05-31T16:58:48;23.30;45.20
18648;DHT22;9453;50.294;18.644;2023-05-31T17:01:15;23.30;44.60
18648;DHT22;9453;50.294;18.644;2023-05-31T17:03:42;23.20;44.70
18648;DHT22;9453;50.294;18.644;2023-05-31T17:06:09;23.20;44.60
18648;DHT22;9453;50.294;18.644;2023-05-31T17:08:36;23.20;44.60
18648;DHT22;9453;50.294;18.644;2023-05-31T17:11:03;23.10;44.90
18648;DHT22;9453;50.294;18.644;2023-05-31T17:13:31;23.10;45.00
18648;DHT22;9453;50.294;18.644;2023-05-31T17:15:59;23.10;45.00
18648;DHT22;9453;50.294;18.644;2023-05-31T17:18:26;23.00;45.50
18648;DHT22;9453;50.294;18.644;2023-05-31T17:20:52;22.90;45.30
18648;DHT22;9453;50.294;18.644;2023-05-31T17:23:19;22.90;45.40
18648;DHT22;9453;50.294;18.644;2023-05-31T17:25:46;22.80;45.50
18648;DHT22;9453;50.294;18.644;2023-05-31T17:28:13;22.80;46.20
18648;DHT22;9453;50.294;18.644;2023-05-31T17:30:40;22.80;46.00
18648;DHT22;9453;50.294;18.644;2023-05-31T17:33:09;22.90;46.40
18648;DHT22;9453;50.294;18.644;2023-05-31T17:35:36;22.90;46.30
18648;DHT22;9453;50.294;18.644;2023-05-31T17:38:03;22.80;46.90
18648;DHT22;9453;50.294;18.644;2023-05-31T17:40:31;22.90;46.10
18648;DHT22;9453;50.294;18.644;2023-05-31T17:42:57;22.70;46.40
18648;DHT22;9453;50.294;18.644;2023-05-31T17:45:25;22.70;46.90
18648;DHT22;9453;50.294;18.644;2023-05-31T17:47:52;22.60;46.70
18648;DHT22;9453;50.294;18.644;2023-05-31T17:50:21;22.50;46.70
18648;DHT22;9453;50.294;18.644;2023-05-31T17:52:48;22.40;46.50
18648;DHT22;9453;50.294;18.644;2023-05-31T17:55:18;22.40;46.90
18648;DHT22;9453;50.294;18.644;2023-05-31T17:57:46;22.30;46.90
18648;DHT22;9453;50.294;18.644;2023-05-31T18:00:14;22.20;46.80
18648;DHT22;9453;50.294;18.644;2023-05-31T18:02:41;22.20;47.30
18648;DHT22;9453;50.294;18.644;2023-05-31T18:05:08;22.10;47.30
18648;DHT22;9453;50.294;18.644;2023-05-31T18:07:36;22.00;47.10
18648;DHT22;9453;50.294;18.644;2023-05-31T18:10:04;21.90;46.90
18648;DHT22;9453;50.294;18.644;2023-05-31T18:12:32;21.80;46.60
18648;DHT22;9453;50.294;18.644;2023-05-31T18:14:59;21.70;47.00
18648;DHT22;9453;50.294;18.644;2023-05-31T18:17:26;21.60;47.40
18648;DHT22;9453;50.294;18.644;2023-05-31T18:19:53;21.60;47.10
18648;DHT22;9453;50.294;18.644;2023-05-31T18:22:20;21.50;47.70
18648;DHT22;9453;50.294;18.644;2023-05-31T18:24:48;21.40;47.60
18648;DHT22;9453;50.294;18.644;2023-05-31T18:27:16;21.30;47.70
18648;DHT22;9453;50.294;18.644;2023-05-31T18:29:44;21.20;48.30
18648;DHT22;9453;50.294;18.644;2023-05-31T18:32:11;21.10;48.50
18648;DHT22;9453;50.294;18.644;2023-05-31T18:34:38;21.00;48.60
18648;DHT22;9453;50.294;18.644;2023-05-31T18:37:06;20.90;48.90
18648;DHT22;9453;50.294;18.644;2023-05-31T18:39:34;20.80;49.80
18648;DHT22;9453;50.294;18.644;2023-05-31T18:42:02;20.70;50.30
18648;DHT22;9453;50.294;18.644;2023-05-31T18:44:29;20.60;50.60
18648;DHT22;9453;50.294;18.644;2023-05-31T18:46:56;20.50;51.30
18648;DHT22;9453;50.294;18.644;2023-05-31T18:49:23;20.30;51.50
18648;DHT22;9453;50.294;18.644;2023-05-31T18:51:51;20.30;52.10
18648;DHT22;9453;50.294;18.644;2023-05-31T18:54:18;20.10;52.20
18648;DHT22;9453;50.294;18.644;2023-05-31T18:56:45;20.00;52.60
18648;DHT22;9453;50.294;18.644;2023-05-31T18:59:13;19.90;53.00
18648;DHT22;9453;50.294;18.644;2023-05-31T19:01:41;19.80;53.50
18648;DHT22;9453;50.294;18.644;2023-05-31T19:04:08;19.80;53.90
18648;DHT22;9453;50.294;18.644;2023-05-31T19:06:36;19.70;54.00
18648;DHT22;9453;50.294;18.644;2023-05-31T19:09:03;19.60;54.10
18648;DHT22;9453;50.294;18.644;2023-05-31T19:11:31;19.50;54.30
18648;DHT22;9453;50.294;18.644;2023-05-31T19:13:58;19.50;54.30
18648;DHT22;9453;50.294;18.644;2023-05-31T19:16:26;19.40;54.80
18648;DHT22;9453;50.294;18.644;2023-05-31T19:18:53;19.30;55.10
18648;DHT22;9453;50.294;18.644;2023-05-31T19:21:20;19.30;55.50
18648;DHT22;9453;50.294;18.644;2023-05-31T19:23:47;19.20;55.80
18648;DHT22;9453;50.294;18.644;2023-05-31T19:26:14;19.10;55.80
18648;DHT22;9453;50.294;18.644;2023-05-31T19:28:43;19.00;56.00
18648;DHT22;9453;50.294;18.644;2023-05-31T19:31:10;19.00;56.40
18648;DHT22;9453;50.294;18.644;2023-05-31T19:33:38;18.90;56.60
18648;DHT22;9453;50.294;18.644;2023-05-31T19:36:06;18.80;56.80
18648;DHT22;9453;50.294;18.644;2023-05-31T19:38:33;18.70;56.80
18648;DHT22;9453;50.294;18.644;2023-05-31T19:41:00;18.70;57.10